Time;durP1;ratioP1;P1;durP2;ratioP2;P2;SDS_P1;SDS_P2;PMS_P1;PMS_P2;Temp;Humidity;BMP_temperature;BMP_pressure;BME280_temperature;BME280_humidity;BME280_pressure;Samples;Min_cycle;Max_cycle;Signal;HPM_P1;HPM_P2
2021/10/11 00:01:06;;;;;;;11.95;7.70;;;7.70;83.00;;;;;;5052851;28;20028;-61
2021/10/11 00:03:32;;;;;;;21.27;11.32;;;7.70;83.10;;;;;;5051701;28;20044;-61
2021/10/11 00:05:57;;;;;;;17.95;9.95;;;7.70;82.90;;;;;;5053141;28;20123;-62
2021/10/11 00:08:23;;;;;;;24.08;10.25;;;7.70;83.30;;;;;;5050191;28;20029;-61
2021/10/11 00:10:51;;;;;;;18.40;9.57;;;7.70;83.10;;;;;;5052881;28;20032;-62
2021/10/11 00:13:21;;;;;;;16.35;9.80;;;7.70;83.00;;;;;;5050913;28;20044;-61
2021/10/11 00:15:47;;;;;;;21.55;10.73;;;7.70;82.80;;;;;;5051462;28;20128;-61
2021/10/11 00:18:13;;;;;;;17.40;9.40;;;7.70;82.90;;;;;;5053600;28;20547;-61
2021/10/11 00:20:39;;;;;;;16.58;10.30;;;7.70;82.70;;;;;;5051634;28;20047;-61
2021/10/11 00:23:04;;;;;;;20.00;10.75;;;7.70;82.40;;;;;;5048996;28;20041;-61
2021/10/11 00:25:30;;;;;;;17.13;10.50;;;7.70;82.20;;;;;;5053817;28;20519;-61
2021/10/11 00:27:56;;;;;;;16.45;9.77;;;7.70;82.10;;;;;;5051389;28;20024;-62
2021/10/11 00:30:22;;;;;;;20.90;10.20;;;7.70;82.20;;;;;;5049359;28;20753;-62
2021/10/11 00:32:48;;;;;;;19.33;10.70;;;7.70;82.60;;;;;;5051705;28;20041;-62
2021/10/11 00:35:14;;;;;;;21.70;11.15;;;7.70;82.90;;;;;;5051237;28;20078;-61
2021/10/11 00:37:40;;;;;;;22.42;11.07;;;7.70;83.00;;;;;;5052121;28;20052;-61
2021/10/11 00:40:07;;;;;;;16.95;10.10;;;7.70;82.70;;;;;;5053232;28;20037;-61
2021/10/11 00:42:34;;;;;;;16.90;9.75;;;7.70;82.90;;;;;;5050625;28;20039;-62
2021/10/11 00:44:59;;;;;;;14.15;8.50;;;7.60;82.10;;;;;;5053343;28;20119;-62
2021/10/11 00:47:25;;;;;;;16.88;10.15;;;7.60;82.40;;;;;;5050669;28;20242;-61
2021/10/11 00:49:51;;;;;;;18.10;10.10;;;7.70;82.20;;;;;;5053084;28;20571;-62
2021/10/11 00:52:17;;;;;;;18.77;10.20;;;7.70;82.40;;;;;;5053075;28;20032;-61
2021/10/11 00:54:43;;;;;;;17.13;9.55;;;7.70;82.10;;;;;;5052308;28;20689;-61
2021/10/11 00:57:09;;;;;;;16.13;10.25;;;7.70;82.10;;;;;;5051930;28;20028;-61
2021/10/11 00:59:34;;;;;;;15.65;10.18;;;7.70;82.20;;;;;;5050955;28;20365;-62
2021/10/11 01:02:02;;;;;;;16.98;9.50;;;7.70;82.00;;;;;;5052678;28;20033;-61
2021/10/11 01:04:28;;;;;;;15.23;9.18;;;7.70;82.30;;;;;;5048836;28;20039;-61
2021/10/11 01:06:54;;;;;;;17.27;9.40;;;7.70;82.00;;;;;;5050998;28;20040;-63
2021/10/11 01:09:20;;;;;;;17.67;8.57;;;7.70;81.70;;;;;;5050744;28;20553;-62
2021/10/11 01:11:49;;;;;;;14.90;9.57;;;7.70;81.60;;;;;;5050140;28;20033;-61
2021/10/11 01:14:16;;;;;;;16.55;9.30;;;7.60;81.20;;;;;;5049676;28;20181;-62
2021/10/11 01:16:42;;;;;;;18.73;9.68;;;7.60;80.90;;;;;;5053952;28;20048;-61
2021/10/11 01:19:08;;;;;;;19.60;9.52;;;7.60;81.00;;;;;;5051321;28;20029;-61
2021/10/11 01:21:33;;;;;;;17.92;9.52;;;7.50;80.90;;;;;;5051684;28;20037;-61
2021/10/11 01:23:59;;;;;;;15.95;9.27;;;7.50;81.00;;;;;;5052015;28;20036;-61
2021/10/11 01:26:36;;;;;;;16.92;9.57;;;7.40;81.30;;;;;;5053589;28;20476;-61
2021/10/11 01:29:02;;;;;;;13.30;8.57;;;7.40;81.50;;;;;;5048684;28;20036;-61
2021/10/11 01:31:28;;;;;;;19.45;9.98;;;7.30;81.80;;;;;;5052206;28;20021;-61
2021/10/11 01:33:53;;;;;;;16.00;9.13;;;7.30;82.10;;;;;;5052429;28;20496;-62
2021/10/11 01:36:19;;;;;;;14.40;8.70;;;7.30;82.30;;;;;;5053701;28;20029;-61
2021/10/11 01:38:45;;;;;;;17.23;9.15;;;7.30;82.80;;;;;;5049995;28;20033;-61
2021/10/11 01:41:10;;;;;;;16.88;8.30;;;7.20;83.60;;;;;;5050896;28;20412;-62
2021/10/11 01:43:36;;;;;;;18.15;10.68;;;7.20;84.00;;;;;;5049842;28;20865;-61
2021/10/11 01:46:02;;;;;;;17.52;9.80;;;7.30;84.10;;;;;;5050542;28;20025;-61
2021/10/11 01:48:28;;;;;;;17.13;9.73;;;7.20;84.40;;;;;;5048418;28;20039;-61
2021/10/11 01:50:53;;;;;;;16.77;9.68;;;7.30;84.50;;;;;;5052004;28;20077;-61
2021/10/11 01:53:19;;;;;;;13.10;8.50;;;7.30;84.20;;;;;;5052605;28;20032;-61
2021/10/11 01:55:44;;;;;;;17.02;8.98;;;7.30;83.60;;;;;;5050891;28;20041;-62
2021/10/11 01:58:10;;;;;;;18.48;9.50;;;7.30;83.40;;;;;;5053282;28;20040;-61
2021/10/11 02:00:36;;;;;;;16.95;10.38;;;7.40;83.90;;;;;;5050418;28;20044;-61
2021/10/11 02:03:06;;;;;;;16.83;10.15;;;7.40;84.10;;;;;;5053044;28;20025;-61
2021/10/11 02:05:33;;;;;;;16.17;9.10;;;7.40;83.80;;;;;;5053054;28;20064;-61
2021/10/11 02:07:58;;;;;;;16.95;9.35;;;7.40;83.20;;;;;;5049569;28;20610;-61
2021/10/11 02:10:24;;;;;;;17.38;9.73;;;7.50;83.20;;;;;;5051922;28;20028;-61
2021/10/11 02:12:50;;;;;;;17.80;9.30;;;7.40;83.50;;;;;;5053195;28;20033;-61
2021/10/11 02:15:16;;;;;;;15.52;8.90;;;7.40;83.90;;;;;;5052485;28;20029;-61
2021/10/11 02:17:42;;;;;;;16.55;8.93;;;7.40;84.60;;;;;;5055167;28;20036;-62
2021/10/11 02:20:10;;;;;;;16.00;8.57;;;7.40;84.70;;;;;;5050413;28;20048;-61
2021/10/11 02:22:35;;;;;;;14.38;8.40;;;7.50;84.40;;;;;;5055243;28;20037;-61
2021/10/11 02:25:01;;;;;;;14.90;7.85;;;7.50;84.10;;;;;;5051174;28;20074;-61
2021/10/11 02:27:27;;;;;;;17.70;9.05;;;7.60;83.30;;;;;;5049899;28;20037;-61
2021/10/11 02:29:53;;;;;;;17.40;8.85;;;7.60;82.90;;;;;;5049459;28;20032;-61
2021/10/11 02:32:25;;;;;;;16.70;9.45;;;7.60;83.10;;;;;;5049815;28;20161;-62
2021/10/11 02:34:51;;;;;;;17.02;8.30;;;7.60;83.60;;;;;;5053663;28;20475;-62
2021/10/11 02:37:17;;;;;;;16.45;9.07;;;7.60;83.40;;;;;;5053941;28;20161;-61
2021/10/11 02:39:42;;;;;;;14.68;8.57;;;7.70;83.10;;;;;;5051809;28;20480;-62
2021/10/11 02:42:08;;;;;;;14.65;8.10;;;7.70;83.10;;;;;;5056893;28;20572;-61
2021/10/11 02:44:35;;;;;;;13.65;8.52;;;7.70;82.70;;;;;;5057983;28;20504;-62
2021/10/11 02:47:01;;;;;;;16.75;9.30;;;7.80;82.90;;;;;;5054994;28;20123;-62
2021/10/11 02:49:27;;;;;;;12.65;8.02;;;7.80;82.60;;;;;;5053355;28;20033;-62
2021/10/11 02:51:52;;;;;;;14.82;8.82;;;7.80;82.60;;;;;;5062128;28;20047;-61
2021/10/11 02:54:18;;;;;;;16.55;9.13;;;7.80;82.30;;;;;;5060750;28;20119;-61
2021/10/11 02:56:44;;;;;;;15.02;8.32;;;7.80;82.40;;;;;;5055163;28;20158;-66
2021/10/11 02:59:11;;;;;;;18.02;8.82;;;7.80;82.80;;;;;;5055642;28;20063;-66
2021/10/11 03:01:37;;;;;;;17.55;9.35;;;7.80;83.10;;;;;;5055838;28;20479;-66
2021/10/11 03:04:02;;;;;;;14.57;8.18;;;7.80;83.40;;;;;;5055932;28;20036;-66
2021/10/11 03:06:28;;;;;;;15.68;8.90;;;7.90;83.70;;;;;;5056217;28;20028;-65
2021/10/11 03:08:54;;;;;;;14.77;8.02;;;7.80;83.60;;;;;;5052767;28;20068;-65
2021/10/11 03:11:20;;;;;;;14.80;8.32;;;7.90;82.90;;;;;;5056261;28;20492;-65
2021/10/11 03:13:46;;;;;;;12.88;7.88;;;7.90;82.30;;;;;;5053951;28;20032;-66
2021/10/11 03:16:12;;;;;;;14.02;8.20;;;7.90;82.20;;;;;;5049696;28;20060;-66
2021/10/11 03:18:38;;;;;;;13.23;8.27;;;8.00;81.20;;;;;;5056449;28;20552;-65
2021/10/11 03:21:04;;;;;;;14.27;8.13;;;8.00;80.20;;;;;;5053899;28;20029;-65
2021/10/11 03:23:30;;;;;;;13.32;7.45;;;7.90;79.90;;;;;;5053148;28;20037;-66
2021/10/11 03:25:56;;;;;;;13.82;7.60;;;7.90;79.70;;;;;;5048329;28;20123;-66
2021/10/11 03:28:21;;;;;;;13.95;7.47;;;7.80;79.90;;;;;;5052226;28;20033;-66
2021/10/11 03:30:47;;;;;;;15.02;7.82;;;7.80;79.90;;;;;;5054936;28;20033;-66
2021/10/11 03:33:13;;;;;;;13.05;7.93;;;7.80;79.70;;;;;;5052939;28;20078;-65
2021/10/11 03:35:39;;;;;;;14.93;8.60;;;7.80;80.50;;;;;;5055149;28;20075;-66
2021/10/11 03:38:04;;;;;;;13.75;8.25;;;7.70;80.70;;;;;;5056414;28;20083;-64
2021/10/11 03:40:30;;;;;;;13.32;7.85;;;7.80;80.70;;;;;;5053515;28;20240;-66
2021/10/11 03:42:56;;;;;;;12.85;8.10;;;7.70;81.00;;;;;;5051497;28;20075;-65
2021/10/11 03:45:22;;;;;;;14.35;8.10;;;7.80;81.70;;;;;;5055474;28;20028;-64
2021/10/11 03:47:47;;;;;;;15.90;8.15;;;7.80;82.20;;;;;;5049255;28;20875;-65
2021/10/11 03:50:13;;;;;;;16.00;8.05;;;7.80;82.60;;;;;;5055139;28;20890;-65
2021/10/11 03:52:39;;;;;;;13.57;8.30;;;7.80;82.70;;;;;;5049032;28;20674;-66
2021/10/11 03:55:08;;;;;;;13.05;7.70;;;7.90;81.80;;;;;;5051151;28;20644;-65
2021/10/11 03:57:34;;;;;;;15.57;8.77;;;7.90;82.00;;;;;;5054968;28;20032;-66
2021/10/11 03:59:59;;;;;;;12.40;7.35;;;7.90;81.70;;;;;;5051605;28;20028;-66
2021/10/11 04:02:26;;;;;;;13.18;7.90;;;8.00;81.90;;;;;;5049765;28;20044;-65
2021/10/11 04:04:52;;;;;;;13.27;8.00;;;8.00;81.70;;;;;;5051833;28;20463;-66
2021/10/11 04:07:19;;;;;;;12.52;7.53;;;8.00;81.70;;;;;;5050914;28;20037;-66
2021/10/11 04:09:46;;;;;;;12.35;8.20;;;8.10;81.50;;;;;;5055622;28;20020;-66
2021/10/11 04:12:22;;;;;;;12.75;7.75;;;8.10;81.10;;;;;;5054182;28;20033;-66
2021/10/11 04:14:48;;;;;;;14.95;8.48;;;8.10;80.80;;;;;;5053393;28;20041;-66
2021/10/11 04:17:14;;;;;;;11.55;7.72;;;8.10;80.90;;;;;;5048073;28;20289;-66
2021/10/11 04:19:41;;;;;;;13.20;7.75;;;8.20;81.50;;;;;;5051973;28;20649;-66
2021/10/11 04:22:06;;;;;;;12.48;7.72;;;8.20;81.50;;;;;;5047830;28;20182;-65
2021/10/11 04:24:32;;;;;;;13.38;7.50;;;8.30;81.60;;;;;;5050599;28;20503;-66
2021/10/11 04:26:58;;;;;;;17.00;8.27;;;8.30;81.60;;;;;;5069681;28;20119;-66
2021/10/11 04:29:24;;;;;;;12.18;7.82;;;8.30;81.60;;;;;;5064144;28;20841;-66
2021/10/11 04:31:49;;;;;;;13.27;7.57;;;8.30;81.40;;;;;;5051625;28;20104;-65
2021/10/11 04:34:15;;;;;;;11.82;7.60;;;8.30;81.50;;;;;;5058911;28;20025;-65
2021/10/11 04:36:41;;;;;;;12.48;7.07;;;8.30;81.80;;;;;;5055193;28;20036;-66
2021/10/11 04:39:07;;;;;;;12.25;8.43;;;8.40;82.20;;;;;;5054404;28;20045;-65
2021/10/11 04:41:32;;;;;;;11.35;7.50;;;8.30;82.70;;;;;;5064864;28;20037;-62
2021/10/11 04:43:58;;;;;;;11.80;7.47;;;8.30;82.90;;;;;;5054642;28;20029;-61
2021/10/11 04:46:24;;;;;;;13.73;8.32;;;8.30;82.70;;;;;;5064349;28;20028;-61
2021/10/11 04:48:50;;;;;;;13.27;8.40;;;8.30;82.50;;;;;;5065106;28;20051;-62
2021/10/11 04:51:16;;;;;;;13.23;8.52;;;8.30;82.70;;;;;;5062085;28;20476;-62
2021/10/11 04:53:41;;;;;;;13.95;7.95;;;8.30;82.90;;;;;;5070249;28;20040;-62
2021/10/11 04:56:07;;;;;;;13.25;8.00;;;8.30;82.90;;;;;;5069022;28;20029;-61
2021/10/11 04:58:33;;;;;;;11.73;7.90;;;8.30;83.00;;;;;;5063802;28;20045;-62
2021/10/11 05:00:58;;;;;;;17.33;9.68;;;8.30;83.00;;;;;;5075252;28;20032;-62
2021/10/11 05:03:24;;;;;;;16.40;8.98;;;8.30;82.70;;;;;;5073835;28;20102;-62
2021/10/11 05:05:50;;;;;;;18.80;10.02;;;8.30;82.70;;;;;;5067299;28;20528;-62
2021/10/11 05:08:15;;;;;;;16.20;8.95;;;8.30;82.90;;;;;;5066088;28;20032;-62
2021/10/11 05:10:41;;;;;;;21.83;10.57;;;8.30;83.00;;;;;;5070437;28;20077;-62
2021/10/11 05:13:07;;;;;;;30.67;12.40;;;8.30;83.20;;;;;;5070455;28;20146;-62
2021/10/11 05:15:32;;;;;;;51.13;17.38;;;8.40;83.30;;;;;;5070359;28;20117;-62
2021/10/11 05:17:58;;;;;;;46.75;16.48;;;8.40;83.60;;;;;;5076664;28;20718;-62
2021/10/11 05:20:31;;;;;;;46.33;17.33;;;8.40;83.80;;;;;;5071524;28;20040;-62
2021/10/11 05:22:56;;;;;;;40.03;14.68;;;8.50;84.10;;;;;;5074042;28;20123;-61
2021/10/11 05:25:23;;;;;;;24.48;11.95;;;8.50;84.00;;;;;;5069930;28;20139;-62
2021/10/11 05:27:48;;;;;;;27.40;12.07;;;8.60;83.30;;;;;;5066811;28;20488;-62
2021/10/11 05:30:14;;;;;;;28.08;11.45;;;8.70;83.00;;;;;;5070519;28;20135;-61
2021/10/11 05:32:40;;;;;;;21.23;11.73;;;8.80;82.70;;;;;;5067075;28;20029;-62
2021/10/11 05:35:06;;;;;;;18.00;10.57;;;8.80;81.40;;;;;;5068597;28;20024;-61
2021/10/11 05:37:32;;;;;;;23.08;11.02;;;8.90;81.70;;;;;;5066753;28;20440;-62
2021/10/11 05:39:58;;;;;;;21.08;12.00;;;8.90;81.70;;;;;;5064943;28;20032;-61
2021/10/11 05:42:24;;;;;;;18.48;11.63;;;9.00;81.60;;;;;;5051025;28;20463;-61
2021/10/11 05:44:50;;;;;;;17.55;11.30;;;9.00;81.70;;;;;;5064109;28;20043;-61
2021/10/11 05:47:15;;;;;;;19.92;10.85;;;9.00;81.80;;;;;;5059519;28;20032;-61
2021/10/11 05:49:41;;;;;;;20.42;11.95;;;9.10;82.00;;;;;;5065374;28;20033;-61
2021/10/11 05:52:07;;;;;;;19.90;11.00;;;9.20;81.60;;;;;;5063492;28;20028;-62
2021/10/11 05:54:33;;;;;;;20.02;11.32;;;9.20;81.80;;;;;;5061534;28;20116;-61
2021/10/11 05:56:59;;;;;;;18.83;11.65;;;9.30;81.60;;;;;;5053462;28;20028;-61
2021/10/11 05:59:25;;;;;;;17.85;11.32;;;9.30;81.90;;;;;;5057995;28;20051;-61
2021/10/11 06:01:51;;;;;;;19.45;12.52;;;9.40;81.70;;;;;;5051655;28;20036;-61
2021/10/11 06:04:16;;;;;;;22.65;12.40;;;9.50;81.40;;;;;;5050191;28;20029;-61
2021/10/11 06:06:42;;;;;;;20.95;11.77;;;9.50;81.50;;;;;;5051892;28;20481;-61
2021/10/11 06:09:08;;;;;;;21.85;11.68;;;9.60;81.60;;;;;;5062019;28;20035;-64
2021/10/11 06:11:33;;;;;;;21.63;12.63;;;9.60;81.40;;;;;;5070333;28;20025;-61
2021/10/11 06:14:00;;;;;;;23.65;12.95;;;9.70;81.30;;;;;;5067128;28;20754;-61
2021/10/11 06:16:26;;;;;;;24.52;13.40;;;9.80;81.30;;;;;;5066496;28;20036;-61
2021/10/11 06:18:51;;;;;;;21.50;12.55;;;9.80;81.00;;;;;;5064627;28;20116;-62
2021/10/11 06:21:17;;;;;;;22.02;12.70;;;9.90;80.90;;;;;;5070066;28;20040;-61
2021/10/11 06:23:45;;;;;;;29.60;15.10;;;9.90;80.70;;;;;;5068510;28;20038;-62
2021/10/11 06:26:11;;;;;;;22.65;12.60;;;9.90;80.90;;;;;;5075638;28;20051;-61
2021/10/11 06:28:37;;;;;;;24.52;13.40;;;9.90;80.20;;;;;;5068411;28;20032;-62
2021/10/11 06:31:02;;;;;;;21.73;13.48;;;10.00;80.60;;;;;;5059991;28;20077;-61
2021/10/11 06:33:28;;;;;;;22.58;13.98;;;10.00;80.50;;;;;;5071480;28;20055;-62
2021/10/11 06:35:54;;;;;;;25.52;14.27;;;10.00;80.70;;;;;;5069236;28;20036;-61
2021/10/11 06:38:20;;;;;;;28.98;15.25;;;10.10;80.50;;;;;;5063023;28;20041;-61
2021/10/11 06:40:50;;;;;;;26.13;14.77;;;10.20;80.30;;;;;;5061450;28;20048;-62
2021/10/11 06:43:17;;;;;;;23.27;14.40;;;10.20;80.30;;;;;;5067919;28;20036;-61
2021/10/11 06:45:42;;;;;;;23.45;14.00;;;10.30;80.30;;;;;;5059976;28;20071;-61
2021/10/11 06:48:08;;;;;;;25.25;14.70;;;10.40;80.00;;;;;;5058920;28;20044;-71
2021/10/11 06:50:34;;;;;;;25.52;14.80;;;10.40;79.80;;;;;;5065712;28;20502;-61
2021/10/11 06:53:00;;;;;;;29.55;14.52;;;10.40;80.20;;;;;;5069636;28;20039;-61
2021/10/11 06:55:26;;;;;;;22.02;13.48;;;10.40;80.00;;;;;;5059326;28;20081;-61
2021/10/11 06:57:51;;;;;;;23.00;12.93;;;10.50;80.20;;;;;;5066360;28;20598;-61
2021/10/11 07:00:17;;;;;;;22.45;13.45;;;10.60;80.50;;;;;;5072633;28;20425;-61
2021/10/11 07:02:43;;;;;;;22.92;13.18;;;10.60;81.10;;;;;;5072954;28;20036;-62
2021/10/11 07:05:10;;;;;;;24.10;13.75;;;10.60;80.00;;;;;;5065714;28;20483;-61
2021/10/11 07:07:40;;;;;;;28.25;15.43;;;10.70;80.10;;;;;;5070835;28;20040;-61
2021/10/11 07:10:07;;;;;;;29.00;14.85;;;10.80;79.00;;;;;;5061416;28;20075;-62
2021/10/11 07:12:34;;;;;;;26.88;15.98;;;10.70;78.80;;;;;;5067851;28;20071;-61
2021/10/11 07:14:59;;;;;;;22.95;13.95;;;10.70;78.60;;;;;;5061762;28;20071;-61
2021/10/11 07:17:25;;;;;;;21.20;12.82;;;10.80;78.90;;;;;;5061674;28;20061;-61
2021/10/11 07:19:51;;;;;;;20.23;13.02;;;10.80;79.10;;;;;;5067800;28;20032;-61
2021/10/11 07:22:17;;;;;;;22.23;12.90;;;10.80;79.00;;;;;;5070649;28;20029;-61
2021/10/11 07:24:44;;;;;;;23.25;14.05;;;10.90;79.10;;;;;;5052314;28;20041;-61
2021/10/11 07:27:10;;;;;;;27.27;13.82;;;10.90;78.40;;;;;;5060473;28;20032;-62
2021/10/11 07:29:37;;;;;;;25.30;14.27;;;10.90;78.70;;;;;;5066909;28;20090;-61
2021/10/11 07:32:06;;;;;;;25.77;13.60;;;10.90;78.80;;;;;;5073105;28;20480;-61
2021/10/11 07:34:32;;;;;;;26.23;15.32;;;10.90;79.30;;;;;;5068397;28;20101;-61
2021/10/11 07:36:58;;;;;;;29.90;14.70;;;10.90;79.30;;;;;;5057135;28;20776;-62
2021/10/11 07:39:24;;;;;;;22.77;13.55;;;10.90;79.30;;;;;;5070202;28;20033;-61
2021/10/11 07:41:50;;;;;;;27.60;16.20;;;10.90;79.40;;;;;;5064722;28;20033;-62
2021/10/11 07:44:16;;;;;;;24.25;13.13;;;10.90;80.00;;;;;;5066285;28;20043;-61
2021/10/11 07:46:42;;;;;;;23.55;14.23;;;10.90;80.30;;;;;;5071987;28;20625;-61
2021/10/11 07:49:09;;;;;;;28.63;15.32;;;10.90;80.40;;;;;;5072627;28;20395;-61
2021/10/11 07:51:35;;;;;;;28.58;15.77;;;10.90;80.70;;;;;;5074669;28;20042;-61
2021/10/11 07:54:02;;;;;;;24.73;14.80;;;10.90;80.60;;;;;;5061197;28;20040;-60
2021/10/11 07:56:28;;;;;;;24.02;14.30;;;10.90;81.10;;;;;;5068577;28;20105;-61
2021/10/11 07:58:53;;;;;;;23.48;14.15;;;11.00;81.30;;;;;;5065978;28;20118;-61
2021/10/11 08:01:20;;;;;;;28.50;16.65;;;11.10;81.60;;;;;;5071764;28;20039;-61
2021/10/11 08:03:46;;;;;;;30.20;17.38;;;11.10;82.00;;;;;;5070595;28;20647;-61
2021/10/11 08:06:12;;;;;;;27.17;16.55;;;11.20;81.70;;;;;;5065395;28;20025;-61
2021/10/11 08:08:37;;;;;;;28.08;17.33;;;11.20;81.50;;;;;;5072044;28;20020;-62
2021/10/11 08:11:03;;;;;;;26.90;17.23;;;11.30;81.40;;;;;;5066930;28;20642;-68
2021/10/11 08:13:29;;;;;;;28.90;16.00;;;11.40;81.40;;;;;;5064035;28;20040;-64
2021/10/11 08:15:56;;;;;;;30.58;17.45;;;11.40;81.70;;;;;;5063882;28;20390;-60
2021/10/11 08:18:23;;;;;;;28.15;17.05;;;11.60;81.00;;;;;;5069706;28;20508;-63
2021/10/11 08:20:49;;;;;;;31.17;17.77;;;11.60;81.60;;;;;;5059958;28;20033;-64
2021/10/11 08:23:15;;;;;;;31.52;18.23;;;11.60;81.70;;;;;;5061010;28;20152;-60
2021/10/11 08:25:41;;;;;;;32.47;19.20;;;11.60;82.00;;;;;;5063438;28;20029;-62
2021/10/11 08:28:06;;;;;;;33.45;19.05;;;11.60;82.10;;;;;;5067632;28;20035;-62
2021/10/11 08:30:32;;;;;;;32.83;18.77;;;11.50;82.80;;;;;;5074309;28;20086;-62
2021/10/11 08:32:59;;;;;;;29.30;17.40;;;11.50;83.00;;;;;;5060876;28;20076;-62
2021/10/11 08:35:25;;;;;;;38.03;19.38;;;11.50;83.60;;;;;;5063999;28;20046;-62
2021/10/11 08:37:51;;;;;;;39.53;20.77;;;11.40;83.90;;;;;;5066709;28;20042;-62
2021/10/11 08:40:17;;;;;;;34.80;18.83;;;11.40;84.10;;;;;;5069966;28;20488;-62
2021/10/11 08:42:44;;;;;;;37.15;18.95;;;11.50;84.30;;;;;;5059697;28;20032;-69
2021/10/11 08:45:10;;;;;;;34.65;19.58;;;11.50;84.40;;;;;;5064296;28;20031;-63
2021/10/11 08:47:36;;;;;;;33.38;19.60;;;11.60;84.90;;;;;;5071892;28;20028;-63
2021/10/11 08:50:03;;;;;;;32.80;19.77;;;11.70;84.10;;;;;;5076814;28;20036;-64
2021/10/11 08:52:29;;;;;;;36.40;19.67;;;11.90;83.70;;;;;;5069743;28;20435;-62
2021/10/11 08:54:55;;;;;;;39.17;20.85;;;12.10;83.20;;;;;;5066485;28;20032;-60
2021/10/11 08:57:26;;;;;;;37.95;20.23;;;12.20;82.50;;;;;;5059468;28;20523;-59
2021/10/11 08:59:53;;;;;;;38.05;19.85;;;12.20;82.40;;;;;;5062083;28;20058;-60
2021/10/11 09:02:20;;;;;;;36.97;20.27;;;12.30;82.50;;;;;;5066825;28;20040;-59
2021/10/11 09:04:51;;;;;;;32.55;19.27;;;12.40;82.80;;;;;;5067554;28;20104;-60
2021/10/11 09:07:24;;;;;;;37.70;21.65;;;12.40;81.70;;;;;;5057684;28;20032;-60
2021/10/11 09:09:52;;;;;;;37.22;20.13;;;12.50;82.10;;;;;;5059376;28;20090;-59
2021/10/11 09:12:27;;;;;;;37.28;20.92;;;12.40;82.30;;;;;;5066157;28;20127;-60
2021/10/11 09:15:11;;;;;;;37.63;19.75;;;12.50;82.20;;;;;;5058985;28;20049;-60
2021/10/11 09:17:43;;;;;;;37.78;20.40;;;12.40;82.60;;;;;;5065132;28;20482;-60
2021/10/11 09:20:09;;;;;;;38.22;20.23;;;12.50;83.00;;;;;;5066831;28;20047;-60
2021/10/11 09:22:37;;;;;;;37.95;18.92;;;12.50;82.70;;;;;;5062788;28;20348;-60
2021/10/11 09:25:04;;;;;;;34.10;19.23;;;12.60;82.70;;;;;;5066417;28;20766;-60
2021/10/11 09:27:49;;;;;;;32.45;19.02;;;12.60;83.00;;;;;;5056583;28;20548;-60
2021/10/11 09:30:16;;;;;;;33.55;19.63;;;12.70;82.60;;;;;;5062179;28;20044;-60
2021/10/11 09:32:42;;;;;;;37.50;19.38;;;12.80;82.60;;;;;;5069491;28;20471;-60
2021/10/11 09:35:19;;;;;;;31.90;18.63;;;13.10;82.00;;;;;;5063923;28;20052;-60
2021/10/11 09:37:52;;;;;;;36.72;18.13;;;13.30;81.40;;;;;;5061060;28;20024;-60
2021/10/11 09:40:20;;;;;;;34.28;19.63;;;13.40;80.50;;;;;;5060184;28;20557;-60
2021/10/11 09:42:46;;;;;;;35.88;19.55;;;13.50;80.20;;;;;;5063062;28;20089;-60
2021/10/11 09:45:13;;;;;;;35.08;18.50;;;13.70;79.40;;;;;;5065376;28;20814;-60
2021/10/11 09:47:44;;;;;;;33.40;19.05;;;13.60;79.20;;;;;;5058963;28;20041;-61
2021/10/11 09:50:12;;;;;;;30.98;18.45;;;13.70;79.20;;;;;;5059897;28;20068;-60
2021/10/11 09:52:40;;;;;;;31.52;17.73;;;14.00;79.10;;;;;;5055311;28;20032;-60
2021/10/11 09:55:07;;;;;;;30.40;17.55;;;14.40;78.90;;;;;;5062186;28;20028;-60
2021/10/11 09:57:34;;;;;;;34.33;17.48;;;14.70;76.90;;;;;;5055508;28;20504;-60
2021/10/11 10:00:04;;;;;;;32.20;17.35;;;15.00;76.50;;;;;;5063500;28;20117;-60
2021/10/11 10:02:40;;;;;;;32.95;16.63;;;15.20;74.50;;;;;;5074209;28;20067;-61
2021/10/11 10:05:18;;;;;;;34.47;18.55;;;15.10;74.40;;;;;;5056455;28;20036;-60
2021/10/11 10:07:48;;;;;;;31.88;17.98;;;14.90;75.20;;;;;;5055173;28;20145;-60
2021/10/11 10:10:18;;;;;;;33.58;18.98;;;14.60;76.20;;;;;;5066092;28;20129;-61
2021/10/11 10:12:49;;;;;;;35.28;19.00;;;14.40;76.60;;;;;;5062878;28;20048;-60
2021/10/11 10:15:37;;;;;;;31.13;16.50;;;14.20;78.10;;;;;;5059173;28;20572;-60
2021/10/11 10:18:09;;;;;;;32.92;17.52;;;14.30;79.70;;;;;;5050486;28;20040;-64
2021/10/11 10:20:52;;;;;;;29.38;16.40;;;14.50;77.70;;;;;;5053596;28;20510;-64
2021/10/11 10:23:33;;;;;;;28.90;15.27;;;14.70;77.40;;;;;;5058637;28;20084;-66
2021/10/11 10:26:03;;;;;;;28.98;17.08;;;14.80;77.40;;;;;;5059318;28;20041;-61
2021/10/11 10:28:43;;;;;;;28.90;16.27;;;14.80;76.50;;;;;;5060979;28;20032;-61
2021/10/11 10:31:09;;;;;;;37.35;17.83;;;14.70;76.80;;;;;;5058849;28;20039;-61
2021/10/11 10:33:39;;;;;;;28.05;14.85;;;14.60;77.20;;;;;;5053704;28;20032;-61
2021/10/11 10:36:18;;;;;;;27.58;15.73;;;14.50;77.90;;;;;;5054970;28;20473;-61
2021/10/11 10:38:54;;;;;;;28.67;15.93;;;14.60;78.60;;;;;;5052320;28;20060;-61
2021/10/11 10:41:21;;;;;;;32.50;15.60;;;14.70;78.20;;;;;;5058063;28;20033;-62
2021/10/11 10:43:46;;;;;;;29.38;16.02;;;14.90;77.70;;;;;;5054908;28;20090;-61
2021/10/11 10:46:12;;;;;;;29.33;14.48;;;15.10;77.00;;;;;;5065579;28;20072;-61
2021/10/11 10:48:48;;;;;;;25.83;13.80;;;15.20;77.20;;;;;;5062580;28;20033;-61
2021/10/11 10:51:14;;;;;;;;;;;15.40;76.20;;;;;;5063787;28;20075;-63
2021/10/11 10:53:42;;;;;;;18.80;11.20;;;15.50;76.20;;;;;;5067103;28;19912;-63
2021/10/11 10:56:12;;;;;;;20.75;10.98;;;15.40;74.50;;;;;;5068989;28;20790;-62
2021/10/11 10:58:37;;;;;;;22.88;11.63;;;15.30;75.90;;;;;;5063431;28;20063;-62
2021/10/11 11:01:03;;;;;;;21.67;10.85;;;15.50;75.80;;;;;;5068018;28;20643;-62
2021/10/11 11:03:29;;;;;;;27.75;12.20;;;15.70;74.90;;;;;;5067142;28;20106;-64
2021/10/11 11:05:55;;;;;;;17.83;10.43;;;16.00;74.30;;;;;;5057765;28;20029;-60
2021/10/11 11:08:26;;;;;;;21.77;11.50;;;16.10;73.20;;;;;;5054258;28;20045;-61
2021/10/11 11:10:52;;;;;;;20.45;10.88;;;16.20;72.80;;;;;;5065648;28;20207;-64
2021/10/11 11:13:18;;;;;;;20.58;11.18;;;16.20;72.40;;;;;;5061562;28;20530;-69
2021/10/11 11:15:50;;;;;;;23.55;12.18;;;16.10;72.90;;;;;;5066738;28;20602;-61
2021/10/11 11:18:21;;;;;;;20.98;10.77;;;16.00;73.70;;;;;;5066488;28;20143;-62
2021/10/11 11:20:48;;;;;;;16.33;9.93;;;16.00;73.90;;;;;;5070489;28;20843;-62
2021/10/11 11:23:19;;;;;;;18.27;10.43;;;15.90;74.00;;;;;;5059621;28;20135;-63
2021/10/11 11:25:47;;;;;;;23.63;10.38;;;15.80;73.80;;;;;;5055829;28;20032;-63
2021/10/11 11:28:21;;;;;;;18.77;9.88;;;15.60;74.80;;;;;;5056661;28;20056;-63
2021/10/11 11:30:48;;;;;;;18.77;9.20;;;15.60;75.10;;;;;;5053592;28;20082;-63
2021/10/11 11:33:15;;;;;;;22.23;10.65;;;15.60;75.40;;;;;;5055704;28;20735;-63
2021/10/11 11:35:49;;;;;;;22.95;11.98;;;15.60;75.20;;;;;;5060294;28;20271;-63
2021/10/11 11:38:18;;;;;;;20.75;10.82;;;15.70;75.00;;;;;;5060476;28;20044;-62
2021/10/11 11:40:59;;;;;;;21.63;9.40;;;15.80;75.30;;;;;;5066815;28;20447;-68
2021/10/11 11:43:30;;;;;;;18.75;8.57;;;16.00;74.00;;;;;;5067940;28;20040;-68
2021/10/11 11:45:58;;;;;;;17.27;6.90;;;15.90;75.20;;;;;;5054435;28;20123;-69
2021/10/11 11:48:28;;;;;;;15.45;5.88;;;15.90;72.40;;;;;;5058995;28;20042;-68
2021/10/11 11:50:56;;;;;;;17.10;6.97;;;15.90;72.40;;;;;;5053871;28;20115;-68
2021/10/11 11:53:23;;;;;;;14.60;6.50;;;15.80;73.00;;;;;;5051702;28;20036;-65
2021/10/11 11:55:57;;;;;;;15.90;5.45;;;15.70;73.70;;;;;;5056975;28;20082;-62
2021/10/11 11:58:24;;;;;;;16.40;5.95;;;15.70;74.00;;;;;;5057425;28;20040;-62
2021/10/11 12:00:52;;;;;;;13.30;5.45;;;15.60;73.80;;;;;;5065028;28;20036;-70
2021/10/11 12:03:20;;;;;;;12.73;4.90;;;15.70;74.60;;;;;;5060231;28;20044;-63
2021/10/11 12:05:50;;;;;;;13.90;5.03;;;15.70;74.50;;;;;;5063457;28;20048;-73
2021/10/11 12:08:16;;;;;;;14.07;4.57;;;15.80;74.40;;;;;;5065058;28;20059;-65
2021/10/11 12:10:42;;;;;;;16.13;5.68;;;15.80;74.50;;;;;;5058902;28;20127;-65
2021/10/11 12:13:07;;;;;;;11.43;5.35;;;15.70;74.80;;;;;;5065940;28;20193;-65
2021/10/11 12:15:34;;;;;;;17.17;5.10;;;15.60;74.90;;;;;;5059789;28;20045;-65
2021/10/11 12:18:10;;;;;;;10.88;5.10;;;15.50;75.10;;;;;;5060501;28;20144;-64
2021/10/11 12:20:50;;;;;;;;;;;15.50;75.90;;;;;;5062097;28;20032;-65
2021/10/11 12:23:17;;;;;;;11.80;4.10;;;15.40;76.80;;;;;;5064583;28;19924;-65
2021/10/11 12:25:45;;;;;;;11.95;4.80;;;15.50;76.60;;;;;;5062264;28;20839;-66
2021/10/11 12:28:16;;;;;;;12.80;3.65;;;15.50;76.10;;;;;;5064355;28;20059;-65
2021/10/11 12:30:43;;;;;;;14.00;4.32;;;15.60;75.60;;;;;;5059927;28;20036;-65
2021/10/11 12:33:18;;;;;;;9.38;4.35;;;15.60;75.50;;;;;;5062557;28;20093;-65
2021/10/11 12:36:00;;;;;;;13.13;4.20;;;15.50;75.40;;;;;;5058695;28;20067;-65
2021/10/11 12:38:35;;;;;;;12.07;4.32;;;15.50;76.40;;;;;;5059288;28;20054;-65